sensor_id;sensor_type;location;lat;lon;timestamp;temperature;humidity
15143;DHT22;7672;50.834;6.286;2023-08-06T00:01:55;17.70;99.90
15143;DHT22;7672;50.834;6.286;2023-08-06T00:04:23;17.70;99.90
15143;DHT22;7672;50.834;6.286;2023-08-06T00:06:50;17.70;99.90
15143;DHT22;7672;50.834;6.286;2023-08-06T00:09:17;17.70;99.90
15143;DHT22;7672;50.834;6.286;2023-08-06T00:11:44;17.70;99.90
15143;DHT22;7672;50.834;6.286;2023-08-06T00:14:13;17.70;99.90
15143;DHT22;7672;50.834;6.286;2023-08-06T00:16:45;17.70;99.90
15143;DHT22;7672;50.834;6.286;2023-08-06T00:19:12;17.70;99.90
15143;DHT22;7672;50.834;6.286;2023-08-06T00:21:40;17.80;99.90
15143;DHT22;7672;50.834;6.286;2023-08-06T00:24:07;17.70;99.90
15143;DHT22;7672;50.834;6.286;2023-08-06T00:26:34;17.70;99.90
15143;DHT22;7672;50.834;6.286;2023-08-06T00:29:01;17.70;99.90
15143;DHT22;7672;50.834;6.286;2023-08-06T00:31:28;17.60;99.90
15143;DHT22;7672;50.834;6.286;2023-08-06T00:33:56;17.60;99.90
15143;DHT22;7672;50.834;6.286;2023-08-06T00:36:23;17.60;99.90
15143;DHT22;7672;50.834;6.286;2023-08-06T00:38:50;17.60;99.90
15143;DHT22;7672;50.834;6.286;2023-08-06T00:41:17;17.60;99.90
15143;DHT22;7672;50.834;6.286;2023-08-06T00:43:44;17.60;99.90
15143;DHT22;7672;50.834;6.286;2023-08-06T00:46:11;17.50;99.90
15143;DHT22;7672;50.834;6.286;2023-08-06T00:48:40;17.50;99.90
15143;DHT22;7672;50.834;6.286;2023-08-06T00:51:12;17.50;99.90
15143;DHT22;7672;50.834;6.286;2023-08-06T00:53:40;17.40;99.90
15143;DHT22;7672;50.834;6.286;2023-08-06T00:56:08;17.40;99.90
15143;DHT22;7672;50.834;6.286;2023-08-06T00:58:36;17.50;99.90
15143;DHT22;7672;50.834;6.286;2023-08-06T01:01:05;17.40;99.90
15143;DHT22;7672;50.834;6.286;2023-08-06T01:03:32;17.30;99.90
15143;DHT22;7672;50.834;6.286;2023-08-06T01:06:00;17.30;99.90
15143;DHT22;7672;50.834;6.286;2023-08-06T01:08:47;17.20;99.90
15143;DHT22;7672;50.834;6.286;2023-08-06T01:11:30;17.20;99.90
15143;DHT22;7672;50.834;6.286;2023-08-06T01:14:33;17.20;99.90
15143;DHT22;7672;50.834;6.286;2023-08-06T01:17:20;17.10;99.90
15143;DHT22;7672;50.834;6.286;2023-08-06T01:19:48;17.10;99.90
15143;DHT22;7672;50.834;6.286;2023-08-06T01:22:16;17.10;99.90
15143;DHT22;7672;50.834;6.286;2023-08-06T01:24:46;17.50;99.90
15143;DHT22;7672;50.834;6.286;2023-08-06T01:27:28;17.10;99.90
15143;DHT22;7672;50.834;6.286;2023-08-06T01:30:10;17.00;99.90
15143;DHT22;7672;50.834;6.286;2023-08-06T01:32:44;17.10;99.90
15143;DHT22;7672;50.834;6.286;2023-08-06T01:35:15;17.10;99.90
15143;DHT22;7672;50.834;6.286;2023-08-06T01:37:44;17.20;99.90
15143;DHT22;7672;50.834;6.286;2023-08-06T01:40:13;17.00;99.90
15143;DHT22;7672;50.834;6.286;2023-08-06T01:42:40;17.00;99.90
15143;DHT22;7672;50.834;6.286;2023-08-06T01:45:08;17.10;99.90
15143;DHT22;7672;50.834;6.286;2023-08-06T01:47:36;17.10;99.90
15143;DHT22;7672;50.834;6.286;2023-08-06T01:50:03;17.10;99.90
15143;DHT22;7672;50.834;6.286;2023-08-06T01:52:31;17.10;99.90
15143;DHT22;7672;50.834;6.286;2023-08-06T01:54:58;17.10;99.90
15143;DHT22;7672;50.834;6.286;2023-08-06T01:57:25;17.20;99.90
15143;DHT22;7672;50.834;6.286;2023-08-06T01:59:52;17.70;99.90
15143;DHT22;7672;50.834;6.286;2023-08-06T02:02:19;17.00;99.90
15143;DHT22;7672;50.834;6.286;2023-08-06T02:04:46;17.20;99.90
15143;DHT22;7672;50.834;6.286;2023-08-06T02:07:14;17.20;99.90
15143;DHT22;7672;50.834;6.286;2023-08-06T02:09:41;17.30;99.90
15143;DHT22;7672;50.834;6.286;2023-08-06T02:12:08;17.30;99.90
15143;DHT22;7672;50.834;6.286;2023-08-06T02:14:35;17.30;99.90
15143;DHT22;7672;50.834;6.286;2023-08-06T02:17:02;17.30;99.90
15143;DHT22;7672;50.834;6.286;2023-08-06T02:19:29;17.30;99.90
15143;DHT22;7672;50.834;6.286;2023-08-06T02:21:56;17.40;99.90
15143;DHT22;7672;50.834;6.286;2023-08-06T02:24:24;17.40;99.90
15143;DHT22;7672;50.834;6.286;2023-08-06T02:26:51;17.40;99.90
15143;DHT22;7672;50.834;6.286;2023-08-06T02:29:22;17.40;99.90
15143;DHT22;7672;50.834;6.286;2023-08-06T02:31:49;17.40;99.90
15143;DHT22;7672;50.834;6.286;2023-08-06T02:34:18;17.40;99.90
15143;DHT22;7672;50.834;6.286;2023-08-06T02:36:46;17.50;99.90
15143;DHT22;7672;50.834;6.286;2023-08-06T02:39:13;17.50;99.90
15143;DHT22;7672;50.834;6.286;2023-08-06T02:41:40;17.40;99.90
15143;DHT22;7672;50.834;6.286;2023-08-06T02:44:07;17.50;99.90
15143;DHT22;7672;50.834;6.286;2023-08-06T02:46:34;17.60;99.90
15143;DHT22;7672;50.834;6.286;2023-08-06T02:49:01;17.60;99.90
15143;DHT22;7672;50.834;6.286;2023-08-06T02:51:28;17.60;99.90
15143;DHT22;7672;50.834;6.286;2023-08-06T02:53:55;17.50;99.90
15143;DHT22;7672;50.834;6.286;2023-08-06T02:56:22;17.70;99.90
15143;DHT22;7672;50.834;6.286;2023-08-06T02:58:58;17.70;99.90
15143;DHT22;7672;50.834;6.286;2023-08-06T03:01:42;17.70;99.90
15143;DHT22;7672;50.834;6.286;2023-08-06T03:04:17;17.70;99.90
15143;DHT22;7672;50.834;6.286;2023-08-06T03:06:47;17.80;99.90
15143;DHT22;7672;50.834;6.286;2023-08-06T03:09:17;17.70;99.90
15143;DHT22;7672;50.834;6.286;2023-08-06T03:11:44;17.80;99.90
15143;DHT22;7672;50.834;6.286;2023-08-06T03:14:14;17.80;99.90
15143;DHT22;7672;50.834;6.286;2023-08-06T03:16:43;17.80;99.90
15143;DHT22;7672;50.834;6.286;2023-08-06T03:19:13;17.80;99.90
15143;DHT22;7672;50.834;6.286;2023-08-06T03:21:40;17.80;99.90
15143;DHT22;7672;50.834;6.286;2023-08-06T03:24:07;17.80;99.90
15143;DHT22;7672;50.834;6.286;2023-08-06T03:26:36;17.80;99.90
15143;DHT22;7672;50.834;6.286;2023-08-06T03:29:03;17.80;99.90
15143;DHT22;7672;50.834;6.286;2023-08-06T03:31:33;17.70;99.90
15143;DHT22;7672;50.834;6.286;2023-08-06T03:34:01;17.80;99.90
15143;DHT22;7672;50.834;6.286;2023-08-06T03:36:30;17.80;99.90
15143;DHT22;7672;50.834;6.286;2023-08-06T03:38:57;18.00;99.90
15143;DHT22;7672;50.834;6.286;2023-08-06T03:41:24;18.10;99.90
15143;DHT22;7672;50.834;6.286;2023-08-06T03:43:51;17.70;99.90
15143;DHT22;7672;50.834;6.286;2023-08-06T03:46:23;17.70;99.90
15143;DHT22;7672;50.834;6.286;2023-08-06T03:48:52;17.70;99.90
15143;DHT22;7672;50.834;6.286;2023-08-06T03:51:19;17.80;99.90
15143;DHT22;7672;50.834;6.286;2023-08-06T03:53:47;17.70;99.90
15143;DHT22;7672;50.834;6.286;2023-08-06T03:56:14;17.70;99.90
15143;DHT22;7672;50.834;6.286;2023-08-06T03:58:41;17.70;99.90
15143;DHT22;7672;50.834;6.286;2023-08-06T04:01:09;17.70;99.90
15143;DHT22;7672;50.834;6.286;2023-08-06T04:03:43;17.80;99.90
15143;DHT22;7672;50.834;6.286;2023-08-06T04:06:10;17.70;99.90
15143;DHT22;7672;50.834;6.286;2023-08-06T04:08:37;17.80;99.90
15143;DHT22;7672;50.834;6.286;2023-08-06T04:11:04;17.70;99.90
15143;DHT22;7672;50.834;6.286;2023-08-06T04:13:31;17.70;99.90
15143;DHT22;7672;50.834;6.286;2023-08-06T04:16:04;17.70;99.90
15143;DHT22;7672;50.834;6.286;2023-08-06T04:18:32;17.70;99.90
15143;DHT22;7672;50.834;6.286;2023-08-06T04:21:01;17.70;99.90
15143;DHT22;7672;50.834;6.286;2023-08-06T04:23:29;17.60;99.90
15143;DHT22;7672;50.834;6.286;2023-08-06T04:26:00;17.70;99.90
15143;DHT22;7672;50.834;6.286;2023-08-06T04:28:31;17.60;99.90
15143;DHT22;7672;50.834;6.286;2023-08-06T04:30:59;17.70;99.90
15143;DHT22;7672;50.834;6.286;2023-08-06T04:33:28;17.60;99.90
15143;DHT22;7672;50.834;6.286;2023-08-06T04:35:58;17.70;99.90
15143;DHT22;7672;50.834;6.286;2023-08-06T04:38:27;17.70;99.90
15143;DHT22;7672;50.834;6.286;2023-08-06T04:40:55;17.70;99.90
15143;DHT22;7672;50.834;6.286;2023-08-06T04:43:23;17.70;99.90
15143;DHT22;7672;50.834;6.286;2023-08-06T04:45:53;17.70;99.90
15143;DHT22;7672;50.834;6.286;2023-08-06T04:48:22;17.70;99.90
15143;DHT22;7672;50.834;6.286;2023-08-06T04:50:50;17.70;99.90
15143;DHT22;7672;50.834;6.286;2023-08-06T04:53:17;17.70;99.90
15143;DHT22;7672;50.834;6.286;2023-08-06T04:55:44;17.80;99.90
15143;DHT22;7672;50.834;6.286;2023-08-06T04:58:12;17.80;99.90
15143;DHT22;7672;50.834;6.286;2023-08-06T05:00:40;17.70;99.90
15143;DHT22;7672;50.834;6.286;2023-08-06T05:03:07;17.80;99.90
15143;DHT22;7672;50.834;6.286;2023-08-06T05:05:34;17.80;99.90
15143;DHT22;7672;50.834;6.286;2023-08-06T05:08:01;17.80;99.90
15143;DHT22;7672;50.834;6.286;2023-08-06T05:10:29;17.90;99.90
15143;DHT22;7672;50.834;6.286;2023-08-06T05:12:56;17.90;99.90
15143;DHT22;7672;50.834;6.286;2023-08-06T05:15:23;17.90;99.90
15143;DHT22;7672;50.834;6.286;2023-08-06T05:17:52;17.90;99.90
15143;DHT22;7672;50.834;6.286;2023-08-06T05:20:20;17.90;99.90
15143;DHT22;7672;50.834;6.286;2023-08-06T05:22:47;18.00;99.90
15143;DHT22;7672;50.834;6.286;2023-08-06T05:25:14;18.00;99.90
15143;DHT22;7672;50.834;6.286;2023-08-06T05:27:41;18.00;99.90
15143;DHT22;7672;50.834;6.286;2023-08-06T05:30:09;18.00;99.90
15143;DHT22;7672;50.834;6.286;2023-08-06T05:32:37;18.00;99.90
15143;DHT22;7672;50.834;6.286;2023-08-06T05:35:04;18.00;99.90
15143;DHT22;7672;50.834;6.286;2023-08-06T05:37:31;18.10;99.90
15143;DHT22;7672;50.834;6.286;2023-08-06T05:39:58;18.10;99.90
15143;DHT22;7672;50.834;6.286;2023-08-06T05:42:26;18.10;99.90
15143;DHT22;7672;50.834;6.286;2023-08-06T05:44:53;18.20;99.90
15143;DHT22;7672;50.834;6.286;2023-08-06T05:47:20;18.20;99.90
15143;DHT22;7672;50.834;6.286;2023-08-06T05:49:47;18.20;99.90
15143;DHT22;7672;50.834;6.286;2023-08-06T05:52:14;18.30;99.90
15143;DHT22;7672;50.834;6.286;2023-08-06T05:54:41;18.30;99.90
15143;DHT22;7672;50.834;6.286;2023-08-06T05:57:08;18.40;99.90
15143;DHT22;7672;50.834;6.286;2023-08-06T05:59:35;18.50;99.90
15143;DHT22;7672;50.834;6.286;2023-08-06T06:02:02;18.50;99.90
15143;DHT22;7672;50.834;6.286;2023-08-06T06:04:29;18.70;99.90
15143;DHT22;7672;50.834;6.286;2023-08-06T06:06:56;18.70;99.90
15143;DHT22;7672;50.834;6.286;2023-08-06T06:09:24;18.90;99.90
15143;DHT22;7672;50.834;6.286;2023-08-06T06:11:52;19.20;99.90
15143;DHT22;7672;50.834;6.286;2023-08-06T06:14:19;19.10;99.90
15143;DHT22;7672;50.834;6.286;2023-08-06T06:16:46;19.20;99.90
15143;DHT22;7672;50.834;6.286;2023-08-06T06:19:13;19.30;99.90
15143;DHT22;7672;50.834;6.286;2023-08-06T06:21:40;19.40;99.90
15143;DHT22;7672;50.834;6.286;2023-08-06T06:24:07;19.40;99.90
15143;DHT22;7672;50.834;6.286;2023-08-06T06:26:34;19.50;99.90
15143;DHT22;7672;50.834;6.286;2023-08-06T06:29:02;19.50;99.90
15143;DHT22;7672;50.834;6.286;2023-08-06T06:31:29;19.50;99.90
15143;DHT22;7672;50.834;6.286;2023-08-06T06:33:56;19.60;99.90
15143;DHT22;7672;50.834;6.286;2023-08-06T06:36:23;19.50;99.90
15143;DHT22;7672;50.834;6.286;2023-08-06T06:38:50;19.50;99.90
15143;DHT22;7672;50.834;6.286;2023-08-06T06:41:17;20.00;99.90
15143;DHT22;7672;50.834;6.286;2023-08-06T06:43:45;19.50;99.90
15143;DHT22;7672;50.834;6.286;2023-08-06T06:46:12;19.50;99.90
15143;DHT22;7672;50.834;6.286;2023-08-06T06:48:39;19.40;99.90
15143;DHT22;7672;50.834;6.286;2023-08-06T06:51:06;19.40;99.90
15143;DHT22;7672;50.834;6.286;2023-08-06T06:53:33;19.40;99.90
15143;DHT22;7672;50.834;6.286;2023-08-06T06:56:04;19.70;99.90
15143;DHT22;7672;50.834;6.286;2023-08-06T06:58:32;19.40;99.90
15143;DHT22;7672;50.834;6.286;2023-08-06T07:00:59;19.30;99.90
15143;DHT22;7672;50.834;6.286;2023-08-06T07:03:27;19.40;99.90
15143;DHT22;7672;50.834;6.286;2023-08-06T07:05:57;19.30;99.90
15143;DHT22;7672;50.834;6.286;2023-08-06T07:08:26;19.30;99.90
15143;DHT22;7672;50.834;6.286;2023-08-06T07:11:06;19.30;99.90
15143;DHT22;7672;50.834;6.286;2023-08-06T07:13:34;19.30;99.90
15143;DHT22;7672;50.834;6.286;2023-08-06T07:16:04;19.30;99.90
15143;DHT22;7672;50.834;6.286;2023-08-06T07:18:31;19.20;99.90
15143;DHT22;7672;50.834;6.286;2023-08-06T07:20:58;19.30;99.90
15143;DHT22;7672;50.834;6.286;2023-08-06T07:23:26;19.20;99.90
15143;DHT22;7672;50.834;6.286;2023-08-06T07:25:53;19.20;99.90
15143;DHT22;7672;50.834;6.286;2023-08-06T07:28:20;19.20;99.90
15143;DHT22;7672;50.834;6.286;2023-08-06T07:30:47;19.10;99.90
15143;DHT22;7672;50.834;6.286;2023-08-06T07:33:14;19.10;99.90
15143;DHT22;7672;50.834;6.286;2023-08-06T07:35:41;19.10;99.90
15143;DHT22;7672;50.834;6.286;2023-08-06T07:38:10;19.10;99.90
15143;DHT22;7672;50.834;6.286;2023-08-06T07:40:37;19.00;99.90
15143;DHT22;7672;50.834;6.286;2023-08-06T07:43:05;19.10;99.90
15143;DHT22;7672;50.834;6.286;2023-08-06T07:45:34;19.00;99.90
15143;DHT22;7672;50.834;6.286;2023-08-06T07:48:02;19.30;99.90
15143;DHT22;7672;50.834;6.286;2023-08-06T07:50:30;19.00;99.90
15143;DHT22;7672;50.834;6.286;2023-08-06T07:52:58;19.00;99.90
15143;DHT22;7672;50.834;6.286;2023-08-06T07:55:25;19.00;99.90
15143;DHT22;7672;50.834;6.286;2023-08-06T07:57:53;18.90;99.90
15143;DHT22;7672;50.834;6.286;2023-08-06T08:00:21;18.80;99.90
15143;DHT22;7672;50.834;6.286;2023-08-06T08:02:48;18.80;99.90
15143;DHT22;7672;50.834;6.286;2023-08-06T08:05:15;18.90;99.90
15143;DHT22;7672;50.834;6.286;2023-08-06T08:07:42;18.80;99.90
15143;DHT22;7672;50.834;6.286;2023-08-06T08:10:11;18.70;99.90
15143;DHT22;7672;50.834;6.286;2023-08-06T08:12:38;18.80;99.90
15143;DHT22;7672;50.834;6.286;2023-08-06T08:15:05;18.70;99.90
15143;DHT22;7672;50.834;6.286;2023-08-06T08:17:33;18.70;99.90
15143;DHT22;7672;50.834;6.286;2023-08-06T08:20:01;18.80;99.90
15143;DHT22;7672;50.834;6.286;2023-08-06T08:22:29;18.80;99.90
15143;DHT22;7672;50.834;6.286;2023-08-06T08:24:56;18.80;99.90
15143;DHT22;7672;50.834;6.286;2023-08-06T08:27:23;18.80;99.90
15143;DHT22;7672;50.834;6.286;2023-08-06T08:29:51;18.80;99.90
15143;DHT22;7672;50.834;6.286;2023-08-06T08:32:18;18.80;99.90
15143;DHT22;7672;50.834;6.286;2023-08-06T08:34:45;18.70;99.90
15143;DHT22;7672;50.834;6.286;2023-08-06T08:37:13;18.60;99.90
15143;DHT22;7672;50.834;6.286;2023-08-06T08:39:40;18.50;99.90
15143;DHT22;7672;50.834;6.286;2023-08-06T08:42:09;18.50;99.90
15143;DHT22;7672;50.834;6.286;2023-08-06T08:44:37;18.40;99.90
15143;DHT22;7672;50.834;6.286;2023-08-06T08:47:13;18.50;99.90
15143;DHT22;7672;50.834;6.286;2023-08-06T08:49:44;18.20;99.90
15143;DHT22;7672;50.834;6.286;2023-08-06T08:52:15;18.20;99.90
15143;DHT22;7672;50.834;6.286;2023-08-06T08:54:44;18.10;99.90
15143;DHT22;7672;50.834;6.286;2023-08-06T08:57:12;18.20;99.90
15143;DHT22;7672;50.834;6.286;2023-08-06T08:59:39;18.00;99.90
15143;DHT22;7672;50.834;6.286;2023-08-06T09:02:09;17.90;99.90
15143;DHT22;7672;50.834;6.286;2023-08-06T09:04:40;17.80;99.90
15143;DHT22;7672;50.834;6.286;2023-08-06T09:07:09;17.80;99.90
15143;DHT22;7672;50.834;6.286;2023-08-06T09:09:39;17.80;99.90
15143;DHT22;7672;50.834;6.286;2023-08-06T09:12:15;17.80;99.90
15143;DHT22;7672;50.834;6.286;2023-08-06T09:14:43;17.70;99.90
15143;DHT22;7672;50.834;6.286;2023-08-06T09:17:10;17.70;99.90
15143;DHT22;7672;50.834;6.286;2023-08-06T09:19:37;17.60;99.90
15143;DHT22;7672;50.834;6.286;2023-08-06T09:22:12;17.60;99.90
15143;DHT22;7672;50.834;6.286;2023-08-06T09:24:44;17.50;99.90
15143;DHT22;7672;50.834;6.286;2023-08-06T09:27:15;17.50;99.90
15143;DHT22;7672;50.834;6.286;2023-08-06T09:29:43;17.70;99.90
15143;DHT22;7672;50.834;6.286;2023-08-06T09:32:12;17.40;99.90
15143;DHT22;7672;50.834;6.286;2023-08-06T09:34:42;17.40;99.90
15143;DHT22;7672;50.834;6.286;2023-08-06T09:37:10;17.30;99.90
15143;DHT22;7672;50.834;6.286;2023-08-06T09:39:40;17.30;99.90
15143;DHT22;7672;50.834;6.286;2023-08-06T09:42:10;17.30;99.90
15143;DHT22;7672;50.834;6.286;2023-08-06T09:44:41;17.20;99.90
15143;DHT22;7672;50.834;6.286;2023-08-06T09:47:08;17.20;99.90
15143;DHT22;7672;50.834;6.286;2023-08-06T09:52:03;17.20;99.90
15143;DHT22;7672;50.834;6.286;2023-08-06T09:54:32;17.10;99.90
15143;DHT22;7672;50.834;6.286;2023-08-06T09:57:03;17.10;99.90
15143;DHT22;7672;50.834;6.286;2023-08-06T09:59:30;17.10;99.90
15143;DHT22;7672;50.834;6.286;2023-08-06T10:01:59;17.10;99.90
15143;DHT22;7672;50.834;6.286;2023-08-06T10:04:29;17.10;99.90
15143;DHT22;7672;50.834;6.286;2023-08-06T10:07:07;17.10;99.90
15143;DHT22;7672;50.834;6.286;2023-08-06T10:09:34;17.10;99.90
15143;DHT22;7672;50.834;6.286;2023-08-06T10:12:01;17.10;99.90
15143;DHT22;7672;50.834;6.286;2023-08-06T10:14:32;17.00;99.90
15143;DHT22;7672;50.834;6.286;2023-08-06T10:17:02;17.10;99.90
15143;DHT22;7672;50.834;6.286;2023-08-06T10:19:31;17.10;99.90
15143;DHT22;7672;50.834;6.286;2023-08-06T10:22:27;17.10;99.90
15143;DHT22;7672;50.834;6.286;2023-08-06T10:24:58;17.10;99.90
15143;DHT22;7672;50.834;6.286;2023-08-06T10:27:52;17.20;99.90
15143;DHT22;7672;50.834;6.286;2023-08-06T10:30:31;17.10;99.90
15143;DHT22;7672;50.834;6.286;2023-08-06T10:38:19;17.20;99.90
15143;DHT22;7672;50.834;6.286;2023-08-06T10:43:33;17.30;99.90
15143;DHT22;7672;50.834;6.286;2023-08-06T10:46:03;17.30;99.90
15143;DHT22;7672;50.834;6.286;2023-08-06T10:48:40;17.40;99.90
15143;DHT22;7672;50.834;6.286;2023-08-06T10:51:10;17.40;99.90
15143;DHT22;7672;50.834;6.286;2023-08-06T10:53:41;17.40;99.90
15143;DHT22;7672;50.834;6.286;2023-08-06T10:56:21;17.50;99.90
15143;DHT22;7672;50.834;6.286;2023-08-06T10:58:51;17.50;99.90
15143;DHT22;7672;50.834;6.286;2023-08-06T11:01:21;17.50;99.90
15143;DHT22;7672;50.834;6.286;2023-08-06T11:03:50;17.60;99.90
15143;DHT22;7672;50.834;6.286;2023-08-06T11:06:21;17.60;99.90
15143;DHT22;7672;50.834;6.286;2023-08-06T11:08:51;17.60;99.90
15143;DHT22;7672;50.834;6.286;2023-08-06T11:11:23;17.70;99.90
15143;DHT22;7672;50.834;6.286;2023-08-06T11:13:51;17.70;99.90
15143;DHT22;7672;50.834;6.286;2023-08-06T11:16:20;17.80;99.90
15143;DHT22;7672;50.834;6.286;2023-08-06T11:18:52;17.80;99.90
15143;DHT22;7672;50.834;6.286;2023-08-06T11:21:21;17.90;99.90
15143;DHT22;7672;50.834;6.286;2023-08-06T11:23:49;17.90;99.90
15143;DHT22;7672;50.834;6.286;2023-08-06T11:26:20;18.00;99.90
15143;DHT22;7672;50.834;6.286;2023-08-06T11:28:50;18.10;99.90
15143;DHT22;7672;50.834;6.286;2023-08-06T11:31:24;18.10;99.90
15143;DHT22;7672;50.834;6.286;2023-08-06T11:33:51;18.10;99.90
15143;DHT22;7672;50.834;6.286;2023-08-06T11:36:32;18.20;99.90
15143;DHT22;7672;50.834;6.286;2023-08-06T11:39:02;18.20;99.90
15143;DHT22;7672;50.834;6.286;2023-08-06T11:41:32;18.30;99.90
15143;DHT22;7672;50.834;6.286;2023-08-06T11:44:00;18.30;99.90
15143;DHT22;7672;50.834;6.286;2023-08-06T11:46:27;18.40;99.90
15143;DHT22;7672;50.834;6.286;2023-08-06T11:48:55;18.40;99.90
15143;DHT22;7672;50.834;6.286;2023-08-06T11:51:25;18.40;99.90
15143;DHT22;7672;50.834;6.286;2023-08-06T11:54:01;18.60;99.90
15143;DHT22;7672;50.834;6.286;2023-08-06T11:56:29;18.50;99.90
15143;DHT22;7672;50.834;6.286;2023-08-06T11:58:56;18.50;99.90
15143;DHT22;7672;50.834;6.286;2023-08-06T12:01:23;18.70;99.90
15143;DHT22;7672;50.834;6.286;2023-08-06T12:03:51;18.50;99.90
15143;DHT22;7672;50.834;6.286;2023-08-06T12:06:19;18.50;99.90
15143;DHT22;7672;50.834;6.286;2023-08-06T12:08:46;18.50;99.90
15143;DHT22;7672;50.834;6.286;2023-08-06T12:11:14;18.50;99.90
15143;DHT22;7672;50.834;6.286;2023-08-06T12:13:41;18.50;99.90
15143;DHT22;7672;50.834;6.286;2023-08-06T12:16:09;18.50;99.90
15143;DHT22;7672;50.834;6.286;2023-08-06T12:18:36;18.50;99.90
15143;DHT22;7672;50.834;6.286;2023-08-06T12:21:03;18.50;99.90
15143;DHT22;7672;50.834;6.286;2023-08-06T12:23:30;18.60;99.90
15143;DHT22;7672;50.834;6.286;2023-08-06T12:25:59;18.50;99.90
15143;DHT22;7672;50.834;6.286;2023-08-06T12:28:26;18.60;99.90
15143;DHT22;7672;50.834;6.286;2023-08-06T12:30:53;18.70;99.90
15143;DHT22;7672;50.834;6.286;2023-08-06T12:33:22;18.80;99.90
15143;DHT22;7672;50.834;6.286;2023-08-06T12:35:49;19.10;99.90
15143;DHT22;7672;50.834;6.286;2023-08-06T12:38:16;19.10;99.90
15143;DHT22;7672;50.834;6.286;2023-08-06T12:40:43;19.20;99.90
15143;DHT22;7672;50.834;6.286;2023-08-06T12:43:10;19.30;99.90
15143;DHT22;7672;50.834;6.286;2023-08-06T12:45:37;19.40;99.90
15143;DHT22;7672;50.834;6.286;2023-08-06T12:48:05;19.40;99.90
15143;DHT22;7672;50.834;6.286;2023-08-06T12:50:32;19.50;99.90
15143;DHT22;7672;50.834;6.286;2023-08-06T12:53:00;19.60;99.90
15143;DHT22;7672;50.834;6.286;2023-08-06T12:55:27;19.60;99.90
15143;DHT22;7672;50.834;6.286;2023-08-06T12:57:58;19.50;99.90
15143;DHT22;7672;50.834;6.286;2023-08-06T13:00:28;19.60;99.90
15143;DHT22;7672;50.834;6.286;2023-08-06T13:02:55;19.60;99.90
15143;DHT22;7672;50.834;6.286;2023-08-06T13:05:22;19.70;99.90
15143;DHT22;7672;50.834;6.286;2023-08-06T13:07:50;19.70;99.90
15143;DHT22;7672;50.834;6.286;2023-08-06T13:10:17;19.70;99.90
15143;DHT22;7672;50.834;6.286;2023-08-06T13:12:44;19.70;99.90
15143;DHT22;7672;50.834;6.286;2023-08-06T13:15:11;19.70;99.90
15143;DHT22;7672;50.834;6.286;2023-08-06T13:17:40;19.70;99.90
15143;DHT22;7672;50.834;6.286;2023-08-06T13:20:07;19.60;99.90
15143;DHT22;7672;50.834;6.286;2023-08-06T13:22:35;19.60;99.90
15143;DHT22;7672;50.834;6.286;2023-08-06T13:25:02;19.50;99.90
15143;DHT22;7672;50.834;6.286;2023-08-06T13:27:29;19.60;99.90
15143;DHT22;7672;50.834;6.286;2023-08-06T13:29:56;19.60;99.90
15143;DHT22;7672;50.834;6.286;2023-08-06T13:32:23;19.60;99.90
15143;DHT22;7672;50.834;6.286;2023-08-06T13:34:50;19.60;99.90
15143;DHT22;7672;50.834;6.286;2023-08-06T13:37:18;19.60;99.90
15143;DHT22;7672;50.834;6.286;2023-08-06T13:39:44;19.60;99.90
15143;DHT22;7672;50.834;6.286;2023-08-06T13:42:12;19.60;99.90
15143;DHT22;7672;50.834;6.286;2023-08-06T13:44:39;19.60;99.90
15143;DHT22;7672;50.834;6.286;2023-08-06T13:47:05;19.50;99.90
15143;DHT22;7672;50.834;6.286;2023-08-06T13:49:33;19.50;99.90
15143;DHT22;7672;50.834;6.286;2023-08-06T13:51:59;19.60;99.90
15143;DHT22;7672;50.834;6.286;2023-08-06T13:54:45;19.50;99.90
15143;DHT22;7672;50.834;6.286;2023-08-06T13:57:12;19.50;99.90
15143;DHT22;7672;50.834;6.286;2023-08-06T13:59:39;19.50;99.90
15143;DHT22;7672;50.834;6.286;2023-08-06T14:02:07;19.50;99.90
15143;DHT22;7672;50.834;6.286;2023-08-06T14:04:34;19.40;99.90
15143;DHT22;7672;50.834;6.286;2023-08-06T14:07:01;19.30;99.90
15143;DHT22;7672;50.834;6.286;2023-08-06T14:09:29;19.20;99.90
15143;DHT22;7672;50.834;6.286;2023-08-06T14:11:57;19.20;99.90
15143;DHT22;7672;50.834;6.286;2023-08-06T14:14:23;19.20;99.90
15143;DHT22;7672;50.834;6.286;2023-08-06T14:16:53;19.10;99.90
15143;DHT22;7672;50.834;6.286;2023-08-06T14:19:21;19.10;99.90
15143;DHT22;7672;50.834;6.286;2023-08-06T14:21:49;19.00;99.90
15143;DHT22;7672;50.834;6.286;2023-08-06T14:24:18;19.00;99.90
15143;DHT22;7672;50.834;6.286;2023-08-06T14:26:45;18.90;99.90
15143;DHT22;7672;50.834;6.286;2023-08-06T14:29:14;18.80;99.90
15143;DHT22;7672;50.834;6.286;2023-08-06T14:31:41;18.70;99.90
15143;DHT22;7672;50.834;6.286;2023-08-06T14:34:11;18.70;99.90
15143;DHT22;7672;50.834;6.286;2023-08-06T14:36:38;18.70;99.90
15143;DHT22;7672;50.834;6.286;2023-08-06T14:39:05;18.80;99.90
15143;DHT22;7672;50.834;6.286;2023-08-06T14:41:32;18.60;99.90
15143;DHT22;7672;50.834;6.286;2023-08-06T14:43:59;18.50;99.90
15143;DHT22;7672;50.834;6.286;2023-08-06T14:46:26;18.50;99.90
15143;DHT22;7672;50.834;6.286;2023-08-06T14:48:53;18.40;99.90
15143;DHT22;7672;50.834;6.286;2023-08-06T14:51:20;18.40;99.90
15143;DHT22;7672;50.834;6.286;2023-08-06T14:53:50;18.30;99.90
15143;DHT22;7672;50.834;6.286;2023-08-06T14:56:19;18.30;99.90
15143;DHT22;7672;50.834;6.286;2023-08-06T14:58:47;18.70;99.90
15143;DHT22;7672;50.834;6.286;2023-08-06T15:01:16;18.20;99.90
15143;DHT22;7672;50.834;6.286;2023-08-06T15:03:43;18.20;99.90
15143;DHT22;7672;50.834;6.286;2023-08-06T15:06:12;18.20;99.90
15143;DHT22;7672;50.834;6.286;2023-08-06T15:08:39;18.20;99.90
15143;DHT22;7672;50.834;6.286;2023-08-06T15:11:06;17.80;99.90
15143;DHT22;7672;50.834;6.286;2023-08-06T15:13:33;18.20;99.90
15143;DHT22;7672;50.834;6.286;2023-08-06T15:16:00;18.20;99.90
15143;DHT22;7672;50.834;6.286;2023-08-06T15:18:27;18.20;99.90
15143;DHT22;7672;50.834;6.286;2023-08-06T15:20:54;18.20;99.90
15143;DHT22;7672;50.834;6.286;2023-08-06T15:23:21;18.30;99.90
15143;DHT22;7672;50.834;6.286;2023-08-06T15:25:49;18.20;99.90
15143;DHT22;7672;50.834;6.286;2023-08-06T15:28:16;18.20;99.90
15143;DHT22;7672;50.834;6.286;2023-08-06T15:30:49;18.20;99.90
15143;DHT22;7672;50.834;6.286;2023-08-06T15:33:18;18.20;99.90
15143;DHT22;7672;50.834;6.286;2023-08-06T15:35:46;18.50;99.90
15143;DHT22;7672;50.834;6.286;2023-08-06T15:38:13;18.30;99.90
15143;DHT22;7672;50.834;6.286;2023-08-06T15:40:40;18.30;99.90
15143;DHT22;7672;50.834;6.286;2023-08-06T15:43:07;18.40;99.90
15143;DHT22;7672;50.834;6.286;2023-08-06T15:45:34;18.40;99.90
15143;DHT22;7672;50.834;6.286;2023-08-06T15:48:02;18.40;99.90
15143;DHT22;7672;50.834;6.286;2023-08-06T15:50:29;18.50;99.90
15143;DHT22;7672;50.834;6.286;2023-08-06T15:52:56;18.70;99.90
15143;DHT22;7672;50.834;6.286;2023-08-06T15:55:23;18.50;99.90
15143;DHT22;7672;50.834;6.286;2023-08-06T15:57:50;18.50;99.90
15143;DHT22;7672;50.834;6.286;2023-08-06T16:00:18;18.50;99.90
15143;DHT22;7672;50.834;6.286;2023-08-06T16:02:45;18.50;99.90
15143;DHT22;7672;50.834;6.286;2023-08-06T16:05:13;18.50;99.90